Time;durP1;ratioP1;P1;durP2;ratioP2;P2;SDS_P1;SDS_P2;PMS_P1;PMS_P2;Temp;Humidity;BMP_temperature;BMP_pressure;BME280_temperature;BME280_humidity;BME280_pressure;Samples;Min_cycle;Max_cycle;Signal;HPM_P1;HPM_P2
2022/01/21 00:01:48;;;;;;;3.03;2.00;;;14.90;56.00;16.00;102344.00;;;;5011847;28;20175;-46
2022/01/21 00:04:14;;;;;;;2.80;2.17;;;14.80;56.00;16.00;102352.00;;;;5029679;28;20182;-48
2022/01/21 00:06:40;;;;;;;2.70;2.00;;;14.80;56.00;16.00;102347.00;;;;5029458;28;20201;-48
2022/01/21 00:09:06;;;;;;;2.20;1.97;;;14.80;56.00;16.00;102343.00;;;;5037761;28;20155;-48
2022/01/21 00:11:33;;;;;;;2.87;1.90;;;14.80;56.00;15.90;102355.00;;;;5039684;28;20194;-49
2022/01/21 00:13:58;;;;;;;2.87;1.90;;;14.80;56.20;15.90;102358.00;;;;5046383;28;20206;-48
2022/01/21 00:16:25;;;;;;;2.27;1.90;;;14.70;55.90;15.90;102352.00;;;;5047998;28;20185;-48
2022/01/21 00:19:03;;;;;;;2.20;1.80;;;14.70;56.20;15.90;102350.00;;;;5049257;28;20178;-47
2022/01/21 00:32:27;;;;;;;2.10;1.90;;;14.60;56.50;15.70;102361.00;;;;5048218;28;20231;-46
2022/01/21 00:34:52;;;;;;;2.37;2.00;;;14.60;56.20;15.70;102363.00;;;;5048419;28;20668;-47
2022/01/21 00:37:18;;;;;;;3.17;2.17;;;14.60;56.10;15.70;102352.00;;;;5048803;28;20248;-47
2022/01/21 00:39:50;;;;;;;1.83;1.67;;;14.60;56.50;15.70;102356.00;;;;5052196;28;20166;-48
2022/01/21 00:43:10;;;;;;;2.27;2.00;;;14.50;56.20;15.70;102358.00;;;;5049197;28;20158;-48
2022/01/21 00:45:01;;;;;;;2.10;1.90;;;14.50;56.10;15.60;102361.00;;;;5037701;28;20648;-47
2022/01/21 00:47:27;;;;;;;2.47;2.00;;;14.50;56.20;15.60;102369.00;;;;5048207;28;20213;-47
2022/01/21 00:49:54;;;;;;;2.10;1.90;;;14.50;56.10;15.60;102364.00;;;;5048130;28;20174;-48
2022/01/21 00:52:19;;;;;;;1.93;1.73;;;14.50;56.20;15.60;102375.00;;;;5047386;28;20170;-47
2022/01/21 00:54:45;;;;;;;2.93;2.17;;;14.50;56.20;15.60;102393.00;;;;5048214;28;20690;-47
2022/01/21 00:57:11;;;;;;;2.33;1.80;;;14.50;56.20;15.60;102398.00;;;;5048945;28;20201;-49
2022/01/21 00:59:36;;;;;;;2.00;1.73;;;14.50;56.40;15.60;102388.00;;;;5050332;28;20163;-48
2022/01/21 01:02:03;;;;;;;1.80;1.60;;;14.50;56.20;15.50;102382.00;;;;5049023;28;20547;-47
2022/01/21 01:04:29;;;;;;;2.00;1.80;;;14.40;56.10;15.50;102376.00;;;;5049130;28;20751;-47
2022/01/21 01:06:54;;;;;;;2.43;1.90;;;14.40;56.40;15.50;102383.00;;;;5048628;28;20209;-47
2022/01/21 01:09:20;;;;;;;2.10;1.90;;;14.40;56.30;15.50;102375.00;;;;5048680;28;20182;-47
2022/01/21 01:12:28;;;;;;;2.23;2.00;;;14.40;56.40;15.50;102362.00;;;;5030504;28;20186;-46
2022/01/21 01:20:08;;;;;;;2.30;1.80;;;14.30;56.40;15.40;102373.00;;;;5048117;28;20212;-48
2022/01/21 01:22:50;;;;;;;1.97;1.80;;;14.30;56.20;15.40;102384.00;;;;5048237;28;20174;-48
2022/01/21 01:28:00;;;;;;;2.63;1.90;;;14.30;56.30;15.40;102388.00;;;;5047642;28;20251;-47
2022/01/21 01:30:28;;;;;;;2.00;1.80;;;14.20;56.20;15.30;102374.00;;;;5047611;28;20471;-48
2022/01/21 01:32:56;;;;;;;2.43;1.90;;;14.20;56.40;15.30;102368.00;;;;5048207;28;20516;-48
2022/01/21 01:35:22;;;;;;;2.40;2.10;;;14.20;56.20;15.30;102360.00;;;;5056050;28;20202;-48
2022/01/21 01:40:27;;;;;;;1.97;1.77;;;14.20;56.20;15.40;102351.00;;;;5048259;28;20166;-47
2022/01/21 01:50:59;;;;;;;2.57;2.00;;;14.10;56.40;15.30;102376.00;;;;5033889;28;20182;-47
2022/01/21 01:53:38;;;;;;;2.20;1.90;;;14.10;56.40;15.30;102372.00;;;;5026384;28;20166;-47
2022/01/21 01:56:08;;;;;;;2.33;2.00;;;14.10;56.40;15.20;102381.00;;;;5027377;28;20167;-47
2022/01/21 01:58:36;;;;;;;2.37;2.00;;;14.10;56.40;15.20;102381.00;;;;5030813;28;20261;-47
2022/01/21 02:01:03;;;;;;;1.97;1.80;;;14.10;56.50;15.20;102387.00;;;;5031098;28;20182;-48
2022/01/21 02:03:30;;;;;;;2.00;1.80;;;14.10;56.40;15.20;102375.00;;;;5031103;28;20183;-48
2022/01/21 02:05:55;;;;;;;2.37;2.00;;;14.10;56.50;15.20;102377.00;;;;5028864;28;20178;-47
2022/01/21 02:08:21;;;;;;;1.90;1.70;;;14.10;57.40;15.20;102376.00;;;;5028113;28;20737;-48
2022/01/21 02:10:47;;;;;;;2.07;1.87;;;14.00;57.60;15.20;102360.00;;;;5028767;28;20186;-49
2022/01/21 02:13:22;;;;;;;2.63;2.00;;;14.00;57.20;15.20;102350.00;;;;5030232;28;20178;-47
2022/01/21 02:16:00;;;;;;;2.00;1.77;;;14.00;57.20;15.10;102355.00;;;;5027141;28;20200;-48
2022/01/21 02:23:53;;;;;;;1.70;1.60;;;13.90;58.00;15.10;102374.00;;;;5026387;28;20199;-48
2022/01/21 02:26:19;;;;;;;2.93;1.90;;;14.00;57.20;15.10;102369.00;;;;5025611;28;20252;-49
2022/01/21 02:28:45;;;;;;;2.53;1.90;;;13.90;57.00;15.00;102364.00;;;;5025666;28;20262;-47
2022/01/21 02:31:10;;;;;;;3.20;2.10;;;13.90;57.00;15.10;102371.00;;;;5027032;28;20179;-47
2022/01/21 02:33:36;;;;;;;1.87;1.67;;;13.90;56.80;15.00;102366.00;;;;5026949;28;20202;-47
2022/01/21 02:36:02;;;;;;;4.30;1.97;;;13.90;57.00;15.00;102383.00;;;;5025840;28;20178;-47
2022/01/21 02:38:27;;;;;;;3.50;2.00;;;13.90;56.70;15.00;102384.00;;;;5026957;28;20250;-48
2022/01/21 02:40:53;;;;;;;2.20;1.97;;;13.90;56.70;15.00;102387.00;;;;5026656;28;20175;-49
2022/01/21 02:43:20;;;;;;;2.93;1.90;;;13.90;56.60;15.00;102388.00;;;;5034101;28;20241;-50
2022/01/21 02:45:46;;;;;;;2.20;1.90;;;13.90;56.60;15.00;102389.00;;;;5023373;28;20178;-48
2022/01/21 02:48:12;;;;;;;2.10;1.90;;;13.90;56.60;15.00;102392.00;;;;5026890;28;20187;-46
2022/01/21 02:50:38;;;;;;;2.00;1.80;;;13.90;56.60;15.00;102389.00;;;;5026562;28;20205;-48
2022/01/21 02:55:47;;;;;;;3.00;2.10;;;13.80;56.50;15.00;102383.00;;;;5027140;28;20167;-48
2022/01/21 02:58:13;;;;;;;2.40;1.70;;;13.80;56.70;14.90;102388.00;;;;5026610;28;20229;-48
2022/01/21 03:00:39;;;;;;;2.70;1.70;;;13.70;56.80;14.90;102401.00;;;;5026355;28;20170;-48
2022/01/21 03:03:05;;;;;;;2.50;1.90;;;13.70;56.70;14.90;102395.00;;;;5027172;28;20171;-47
2022/01/21 03:05:31;;;;;;;3.97;2.10;;;13.70;56.80;14.90;102393.00;;;;5027709;28;20692;-47
2022/01/21 03:07:57;;;;;;;2.67;1.97;;;13.80;56.60;14.90;102406.00;;;;5027006;28;20199;-47
2022/01/21 03:10:22;;;;;;;2.67;2.00;;;13.80;56.80;14.90;102401.00;;;;5026458;28;20207;-48
2022/01/21 03:12:48;;;;;;;3.83;1.90;;;13.70;56.50;14.90;102405.00;;;;5031712;28;20191;-47
2022/01/21 03:15:14;;;;;;;3.50;2.00;;;13.70;56.50;14.80;102403.00;;;;5027381;28;20203;-47
2022/01/21 03:17:40;;;;;;;2.30;1.80;;;13.70;56.50;14.80;102404.00;;;;5026643;28;20728;-47
2022/01/21 03:20:06;;;;;;;2.10;1.90;;;13.70;56.50;14.80;102406.00;;;;5026967;28;20573;-47
2022/01/21 03:22:32;;;;;;;2.77;2.03;;;13.70;56.50;14.80;102407.00;;;;5027112;28;20258;-47
2022/01/21 03:24:58;;;;;;;2.30;1.90;;;13.70;56.50;14.80;102406.00;;;;5027015;28;20254;-48
2022/01/21 03:27:23;;;;;;;3.67;2.07;;;13.70;56.50;14.80;102401.00;;;;5029383;28;20233;-47
2022/01/21 03:29:49;;;;;;;2.87;1.93;;;13.70;56.50;14.80;102396.00;;;;5032414;28;20175;-47
2022/01/21 03:32:15;;;;;;;2.63;1.90;;;13.70;56.50;14.80;102405.00;;;;5031058;28;20201;-47
2022/01/21 03:34:40;;;;;;;2.30;1.73;;;13.70;56.50;14.80;102402.00;;;;5030691;28;20210;-48
2022/01/21 03:37:06;;;;;;;2.93;1.90;;;13.60;56.40;14.80;102406.00;;;;5030296;28;20223;-47
2022/01/21 03:39:32;;;;;;;2.03;1.83;;;13.70;56.50;14.80;102398.00;;;;5031860;28;20418;-47
2022/01/21 03:41:58;;;;;;;2.17;1.80;;;13.60;56.40;14.80;102391.00;;;;5031172;28;20171;-46
2022/01/21 03:44:23;;;;;;;3.10;1.77;;;13.60;56.40;14.80;102387.00;;;;5030824;28;20171;-47
2022/01/21 03:46:49;;;;;;;1.93;1.73;;;13.60;56.40;14.70;102388.00;;;;5030321;28;20191;-48
2022/01/21 03:49:15;;;;;;;2.20;1.80;;;13.60;56.40;14.70;102386.00;;;;5029832;28;20278;-47
2022/01/21 03:51:41;;;;;;;2.10;1.90;;;13.60;56.40;14.70;102397.00;;;;5036681;28;20629;-47
2022/01/21 03:54:07;;;;;;;2.00;1.80;;;13.60;56.40;14.70;102399.00;;;;5029866;28;20209;-47
2022/01/21 03:56:35;;;;;;;2.23;1.97;;;13.50;56.40;14.60;102390.00;;;;5029375;28;20226;-46
2022/01/21 03:59:00;;;;;;;2.37;2.00;;;13.50;56.50;14.60;102392.00;;;;5029747;28;20203;-48
2022/01/21 04:01:28;;;;;;;2.20;1.87;;;13.50;56.50;14.60;102399.00;;;;5029855;28;20668;-47
2022/01/21 04:03:54;;;;;;;2.40;1.80;;;13.50;56.40;14.60;102389.00;;;;5029940;28;20206;-48
2022/01/21 04:06:20;;;;;;;2.03;1.83;;;13.50;56.30;14.60;102399.00;;;;5029398;28;20175;-48
2022/01/21 04:08:46;;;;;;;2.87;1.90;;;13.50;56.40;14.60;102410.00;;;;5029569;28;20186;-49
2022/01/21 04:11:11;;;;;;;1.93;1.70;;;13.50;56.60;14.60;102395.00;;;;5037767;28;20170;-48
2022/01/21 04:13:37;;;;;;;2.13;1.77;;;13.50;56.30;14.60;102399.00;;;;5047577;28;20210;-48
2022/01/21 04:16:03;;;;;;;2.13;1.93;;;13.50;56.30;14.60;102397.00;;;;5042203;28;20542;-48
2022/01/21 04:18:30;;;;;;;1.97;1.80;;;13.50;56.30;14.60;102397.00;;;;5029319;28;20241;-48
2022/01/21 04:20:56;;;;;;;2.83;1.77;;;13.50;56.40;14.60;102406.00;;;;5029249;28;20179;-47
2022/01/21 04:23:22;;;;;;;2.60;1.70;;;13.40;56.50;14.60;102414.00;;;;5029494;28;20402;-47
2022/01/21 04:25:48;;;;;;;1.77;1.67;;;13.40;56.60;14.50;102421.00;;;;5029177;28;20201;-48
2022/01/21 04:28:14;;;;;;;3.83;1.70;;;13.30;57.30;14.50;102413.00;;;;5029417;28;20218;-48
2022/01/21 04:30:39;;;;;;;2.80;1.93;;;13.30;57.30;14.50;102406.00;;;;5028977;28;20614;-46
2022/01/21 04:33:05;;;;;;;2.20;1.83;;;13.30;57.20;14.40;102398.00;;;;5028872;28;20614;-47
2022/01/21 04:35:31;;;;;;;3.83;1.80;;;13.30;56.90;14.40;102397.00;;;;5029462;28;20431;-49
2022/01/21 04:38:02;;;;;;;3.83;1.87;;;13.30;56.90;14.40;102416.00;;;;5028396;28;20195;-46
2022/01/21 04:40:30;;;;;;;2.87;1.87;;;13.30;56.70;14.40;102406.00;;;;5029501;28;20152;-47
2022/01/21 04:48:26;;;;;;;4.33;2.03;;;13.70;56.70;14.50;102386.00;;;;5029563;28;20237;-48
2022/01/21 04:50:55;;;;;;;2.70;1.93;;;14.00;56.30;14.60;102389.00;;;;5029003;28;20198;-48
2022/01/21 04:53:22;;;;;;;2.87;1.90;;;14.20;55.80;14.70;102390.00;;;;5028760;28;20175;-49
2022/01/21 04:55:47;;;;;;;2.53;2.07;;;14.60;55.40;14.90;102407.00;;;;5029162;28;20178;-48
2022/01/21 04:58:13;;;;;;;1.80;1.67;;;14.90;54.70;15.10;102405.00;;;;5028519;28;20210;-47
2022/01/21 05:00:39;;;;;;;3.17;1.90;;;15.30;54.40;15.30;102400.00;;;;5028149;28;20556;-48
2022/01/21 05:03:05;;;;;;;3.47;1.93;;;15.60;53.90;15.50;102387.00;;;;5028457;28;20175;-47
2022/01/21 05:05:30;;;;;;;3.20;1.87;;;15.80;53.70;15.70;102390.00;;;;5028552;28;20179;-48
2022/01/21 05:08:01;;;;;;;2.60;1.93;;;15.90;53.50;15.80;102392.00;;;;5028261;28;20600;-48
2022/01/21 05:10:27;;;;;;;2.97;2.00;;;16.10;53.50;15.90;102395.00;;;;5027850;28;20187;-47
2022/01/21 05:12:54;;;;;;;3.40;2.00;;;16.10;53.50;16.10;102382.00;;;;5031946;28;20183;-48
2022/01/21 05:15:41;;;;;;;2.60;1.67;;;16.20;53.50;16.20;102390.00;;;;5039818;28;20225;-48
2022/01/21 05:18:07;;;;;;;4.57;2.07;;;16.40;54.10;16.30;102375.00;;;;5027776;28;20199;-47
2022/01/21 05:20:33;;;;;;;4.23;1.97;;;16.40;53.30;16.40;102381.00;;;;5035612;28;20703;-49
2022/01/21 05:22:58;;;;;;;2.07;1.80;;;16.50;53.30;16.50;102393.00;;;;5033946;28;20171;-48
2022/01/21 05:25:24;;;;;;;3.73;2.10;;;16.60;53.30;16.60;102410.00;;;;5030050;28;20586;-47
2022/01/21 05:27:52;;;;;;;2.10;1.90;;;16.70;53.30;16.70;102408.00;;;;5032106;28;20194;-45
2022/01/21 05:30:18;;;;;;;3.33;2.20;;;16.70;53.10;16.70;102408.00;;;;5028755;28;20179;-47
2022/01/21 05:32:44;;;;;;;4.07;2.10;;;16.70;53.00;16.80;102416.00;;;;5028427;28;20179;-47
2022/01/21 05:35:10;;;;;;;5.30;2.17;;;16.70;53.00;16.80;102412.00;;;;5028332;28;20584;-48
2022/01/21 05:37:36;;;;;;;4.27;2.70;;;16.60;53.20;16.80;102404.00;;;;5032083;28;20195;-49
2022/01/21 05:40:04;;;;;;;7.00;2.53;;;16.60;53.10;16.80;102412.00;;;;5028806;28;20646;-49
2022/01/21 05:42:33;;;;;;;5.40;2.50;;;16.50;53.10;16.90;102422.00;;;;5028166;28;20159;-47
2022/01/21 05:47:24;;;;;;;6.47;2.90;;;16.50;53.10;16.90;102440.00;;;;5027455;28;20552;-47
2022/01/21 05:49:50;;;;;;;5.07;2.77;;;16.40;53.00;16.90;102433.00;;;;5027259;28;20696;-47
2022/01/21 05:52:17;;;;;;;7.13;2.97;;;16.40;53.60;16.80;102422.00;;;;5027205;28;20175;-47
2022/01/21 05:54:45;;;;;;;5.47;3.00;;;16.30;52.90;16.80;102417.00;;;;5026530;28;20720;-48
2022/01/21 05:57:13;;;;;;;5.57;2.87;;;16.30;52.90;16.80;102415.00;;;;5027277;28;20206;-47
2022/01/21 05:59:39;;;;;;;5.87;2.80;;;16.20;52.90;16.80;102424.00;;;;5026854;28;20535;-47
2022/01/21 06:02:08;;;;;;;4.40;2.60;;;16.20;53.10;16.80;102417.00;;;;5027321;28;20182;-46
2022/01/21 06:04:33;;;;;;;5.53;2.83;;;16.20;53.30;16.80;102407.00;;;;5026892;28;20666;-48
2022/01/21 06:07:00;;;;;;;5.93;2.63;;;16.10;53.40;16.70;102402.00;;;;5027253;28;20194;-48
2022/01/21 06:09:27;;;;;;;6.07;2.83;;;16.10;53.50;16.80;102418.00;;;;5026973;28;20607;-49
2022/01/21 06:11:53;;;;;;;4.10;2.80;;;16.10;53.70;16.70;102426.00;;;;5026230;28;20190;-48
2022/01/21 06:14:19;;;;;;;3.97;2.73;;;16.00;53.70;16.70;102427.00;;;;5046998;28;20186;-47
2022/01/21 06:16:44;;;;;;;4.87;2.70;;;15.90;53.80;16.70;102422.00;;;;5046798;28;20198;-48
2022/01/21 06:19:10;;;;;;;5.13;2.60;;;15.90;53.90;16.70;102436.00;;;;5047421;28;20171;-48
2022/01/21 06:21:36;;;;;;;3.50;2.50;;;15.90;54.10;16.60;102433.00;;;;5046970;28;20326;-47
2022/01/21 06:24:02;;;;;;;5.90;2.67;;;15.80;54.10;16.60;102425.00;;;;5046878;28;20206;-49
2022/01/21 06:26:27;;;;;;;5.07;2.40;;;15.80;54.20;16.60;102427.00;;;;5049117;28;20182;-49
2022/01/21 06:28:53;;;;;;;4.73;2.70;;;15.80;54.30;16.50;102432.00;;;;5049578;28;20189;-49
2022/01/21 06:31:19;;;;;;;5.43;2.70;;;15.70;54.30;16.50;102436.00;;;;5048495;28;20597;-52
2022/01/21 06:33:44;;;;;;;5.13;2.53;;;15.70;54.50;16.50;102445.00;;;;5046598;28;20205;-46
2022/01/21 06:36:10;;;;;;;3.80;2.40;;;15.60;54.50;16.40;102432.00;;;;5047605;28;20231;-48
2022/01/21 06:38:36;;;;;;;3.27;2.27;;;15.70;54.60;16.40;102448.00;;;;5031726;28;20200;-49
2022/01/21 06:41:02;;;;;;;3.03;2.30;;;15.60;54.60;16.40;102450.00;;;;5047726;28;20336;-48
2022/01/21 06:43:27;;;;;;;3.00;2.10;;;15.60;54.60;16.30;102443.00;;;;5047743;28;20190;-47
2022/01/21 06:45:53;;;;;;;3.63;2.37;;;15.50;54.70;16.30;102450.00;;;;5046867;28;20652;-48
2022/01/21 06:48:19;;;;;;;6.13;2.90;;;15.50;54.80;16.30;102453.00;;;;5046357;28;20228;-48
2022/01/21 06:50:45;;;;;;;4.03;2.50;;;15.50;54.90;16.30;102457.00;;;;5044877;28;20438;-48
2022/01/21 06:53:10;;;;;;;3.77;2.50;;;15.40;54.80;16.20;102463.00;;;;5046312;28;20170;-48
2022/01/21 06:55:37;;;;;;;3.27;2.30;;;15.40;55.00;16.20;102469.00;;;;5046537;28;20198;-47
2022/01/21 06:58:05;;;;;;;2.83;2.33;;;15.30;55.00;16.20;102474.00;;;;5046579;28;20252;-47
2022/01/21 07:00:31;;;;;;;3.87;2.40;;;15.30;55.00;16.10;102467.00;;;;5044755;28;20178;-47
2022/01/21 07:02:57;;;;;;;4.40;2.40;;;15.30;55.00;16.10;102475.00;;;;5046213;28;20678;-48
2022/01/21 07:05:25;;;;;;;4.73;2.30;;;15.20;54.90;16.10;102480.00;;;;5048676;28;20236;-47
2022/01/21 07:07:50;;;;;;;3.87;2.17;;;15.20;54.90;16.00;102403.00;;;;5062149;28;20225;-47
2022/01/21 07:10:16;;;;;;;6.00;2.50;;;15.10;54.80;16.00;102484.00;;;;5061782;28;20174;-47
2022/01/21 07:12:43;;;;;;;3.57;2.10;;;15.10;54.90;16.00;102477.00;;;;5054198;28;20228;-49
2022/01/21 07:15:10;;;;;;;3.20;2.20;;;15.10;55.00;16.00;102487.00;;;;5059165;28;20637;-48
2022/01/21 07:17:36;;;;;;;2.90;2.20;;;15.10;55.10;16.00;102483.00;;;;5030024;28;20207;-49
2022/01/21 07:20:03;;;;;;;3.10;2.20;;;15.00;55.10;15.90;102476.00;;;;5025046;28;20677;-48
2022/01/21 07:22:31;;;;;;;3.87;2.30;;;15.00;55.20;15.70;102483.00;;;;5043814;28;20717;-48
2022/01/21 07:24:57;;;;;;;2.70;2.30;;;15.00;55.20;15.90;102475.00;;;;5011496;28;20191;-48
2022/01/21 07:27:23;;;;;;;3.03;2.30;;;14.90;55.20;15.80;102467.00;;;;5015118;28;20587;-48
2022/01/21 07:29:48;;;;;;;3.17;2.10;;;14.90;55.20;15.80;102474.00;;;;5029758;28;20201;-49
2022/01/21 07:32:14;;;;;;;3.00;2.30;;;14.90;55.20;15.80;102473.00;;;;5030497;28;20777;-48
2022/01/21 07:34:40;;;;;;;2.50;2.30;;;14.80;55.20;15.80;102473.00;;;;5029549;28;20199;-46
2022/01/21 07:37:05;;;;;;;4.80;2.20;;;14.80;55.20;15.70;102468.00;;;;5029799;28;20213;-47
2022/01/21 07:39:31;;;;;;;2.23;2.03;;;14.80;55.20;15.70;102462.00;;;;5028542;28;20186;-48
2022/01/21 07:41:57;;;;;;;2.60;2.10;;;14.80;55.30;15.70;102466.00;;;;5041788;28;20190;-49
2022/01/21 07:44:24;;;;;;;2.20;2.00;;;14.80;55.30;15.70;102482.00;;;;5040845;28;20266;-52
2022/01/21 07:46:49;;;;;;;2.37;2.00;;;14.70;55.20;15.70;102490.00;;;;5028823;28;20677;-49
2022/01/21 07:49:16;;;;;;;3.00;2.27;;;14.70;55.30;15.60;102493.00;;;;5029499;28;20183;-49
2022/01/21 07:51:42;;;;;;;3.20;2.40;;;14.70;55.30;15.60;102492.00;;;;5026861;28;20567;-49
2022/01/21 07:54:08;;;;;;;2.27;2.07;;;14.70;55.30;15.60;102502.00;;;;5024303;28;20252;-49
2022/01/21 07:56:34;;;;;;;2.93;1.90;;;14.70;55.40;15.50;102499.00;;;;5008917;28;20665;-48
2022/01/21 07:59:04;;;;;;;2.40;2.13;;;14.70;55.40;15.50;102512.00;;;;5010218;28;20170;-47
2022/01/21 08:01:30;;;;;;;2.77;2.07;;;14.60;55.40;15.50;102509.00;;;;5009585;28;20203;-46
2022/01/21 08:03:56;;;;;;;2.30;2.10;;;14.60;55.50;15.50;102507.00;;;;5010551;28;20187;-47
2022/01/21 08:06:22;;;;;;;2.50;2.30;;;14.50;55.40;15.50;102513.00;;;;5009804;28;20171;-48
2022/01/21 08:08:47;;;;;;;2.03;1.83;;;14.50;55.50;15.40;102510.00;;;;5009614;28;20191;-47
2022/01/21 08:11:13;;;;;;;2.70;2.20;;;14.50;55.50;15.40;102516.00;;;;5008684;28;20176;-49
2022/01/21 08:13:39;;;;;;;3.00;2.00;;;14.50;55.50;15.40;102515.00;;;;5023703;28;20649;-48
2022/01/21 08:16:04;;;;;;;3.00;2.03;;;14.50;55.50;15.40;102518.00;;;;5007597;28;20175;-46
2022/01/21 08:18:30;;;;;;;2.73;2.17;;;14.40;55.40;15.30;102513.00;;;;5008537;28;20200;-47
2022/01/21 08:20:56;;;;;;;2.53;2.00;;;14.40;55.50;15.30;102508.00;;;;5009087;28;20363;-48
2022/01/21 08:23:21;;;;;;;2.60;2.00;;;14.40;55.40;15.30;102511.00;;;;5008482;28;20257;-47
2022/01/21 08:25:47;;;;;;;3.13;2.00;;;14.30;55.40;15.30;102517.00;;;;5008899;28;20180;-47
2022/01/21 08:28:13;;;;;;;2.30;2.00;;;14.40;55.50;15.30;102514.00;;;;5017117;28;20518;-48
2022/01/21 08:30:39;;;;;;;2.33;2.13;;;14.30;55.60;15.30;102516.00;;;;5061478;28;20691;-47
2022/01/21 08:33:05;;;;;;;2.83;2.20;;;14.30;55.50;15.20;102507.00;;;;5063306;28;20174;-48
2022/01/21 08:35:31;;;;;;;2.30;2.10;;;14.30;55.60;15.20;102505.00;;;;5052353;28;20209;-48
2022/01/21 08:37:58;;;;;;;3.67;2.00;;;14.30;55.60;15.20;102504.00;;;;5062686;28;20190;-47
2022/01/21 08:40:24;;;;;;;4.93;2.27;;;14.30;55.60;15.20;102509.00;;;;5062959;28;20220;-49
2022/01/21 08:42:50;;;;;;;3.10;2.23;;;14.20;56.00;15.20;102521.00;;;;5049391;28;20645;-48
2022/01/21 08:45:16;;;;;;;5.83;2.10;;;14.20;56.00;15.20;102508.00;;;;5048785;28;20174;-47
2022/01/21 08:47:42;;;;;;;7.10;2.00;;;14.20;55.80;15.10;102508.00;;;;5048955;28;20561;-48
2022/01/21 08:50:10;;;;;;;6.13;2.10;;;14.20;55.80;15.20;102499.00;;;;5039211;28;20183;-47
2022/01/21 08:52:41;;;;;;;3.23;1.90;;;14.10;56.70;15.10;102510.00;;;;5026790;28;20580;-48
2022/01/21 08:55:12;;;;;;;4.50;2.30;;;14.10;55.70;15.10;102515.00;;;;5027426;28;20281;-47
2022/01/21 08:57:40;;;;;;;3.30;1.90;;;14.10;55.70;15.10;102526.00;;;;5027878;28;20207;-47
2022/01/21 09:00:09;;;;;;;3.20;2.00;;;14.10;55.80;15.10;102521.00;;;;5030005;28;20178;-47
2022/01/21 09:02:34;;;;;;;2.40;1.90;;;14.10;56.00;15.10;102527.00;;;;5049936;28;20239;-47
2022/01/21 09:05:00;;;;;;;3.13;2.03;;;14.10;55.70;15.00;102526.00;;;;5038040;28;20665;-48
2022/01/21 09:07:26;;;;;;;2.80;1.80;;;14.00;55.70;15.00;102520.00;;;;5039348;28;20194;-48
2022/01/21 09:09:51;;;;;;;4.23;2.10;;;14.00;55.90;14.80;102534.00;;;;5030699;28;20179;-47
2022/01/21 09:12:17;;;;;;;2.63;1.90;;;14.00;55.70;15.00;102523.00;;;;5028419;28;20233;-46
2022/01/21 09:14:43;;;;;;;2.63;2.00;;;14.00;55.80;15.00;102521.00;;;;5029960;28;20737;-47
2022/01/21 09:17:09;;;;;;;2.90;2.17;;;14.00;55.90;14.90;102527.00;;;;5028694;28;20677;-47
2022/01/21 09:19:34;;;;;;;2.70;2.20;;;13.90;56.00;14.90;102520.00;;;;5029064;28;20198;-48
2022/01/21 09:22:02;;;;;;;2.30;1.90;;;14.00;56.10;14.90;102512.00;;;;5029724;28;20182;-47
2022/01/21 09:24:29;;;;;;;4.17;1.87;;;13.90;55.90;14.90;102530.00;;;;5029847;28;20183;-48
2022/01/21 09:26:55;;;;;;;3.73;2.10;;;13.90;56.00;14.90;102530.00;;;;5028949;28;20199;-48
2022/01/21 09:29:21;;;;;;;3.17;2.03;;;13.90;56.00;14.90;102525.00;;;;5028844;28;20175;-48
2022/01/21 09:31:46;;;;;;;3.17;2.17;;;13.90;56.10;14.90;102526.00;;;;5029304;28;20175;-47
2022/01/21 09:34:13;;;;;;;4.40;1.97;;;13.90;56.00;14.90;102528.00;;;;5028995;28;20230;-46
2022/01/21 09:36:38;;;;;;;5.80;2.10;;;13.90;56.00;14.90;102540.00;;;;5029318;28;20201;-46
2022/01/21 09:39:05;;;;;;;3.20;2.30;;;13.90;56.20;14.90;102544.00;;;;5029148;28;20171;-46
2022/01/21 09:41:31;;;;;;;5.43;2.53;;;13.90;56.30;14.90;102539.00;;;;5029325;28;20665;-47
2022/01/21 09:43:58;;;;;;;6.07;2.50;;;14.10;56.20;14.90;102539.00;;;;5025512;28;20187;-47
2022/01/21 09:46:33;;;;;;;4.10;2.30;;;14.30;56.20;15.00;102531.00;;;;5028727;28;20174;-48
2022/01/21 09:51:50;;;;;;;6.57;2.50;;;15.00;55.70;15.40;102525.00;;;;5029124;28;20222;-46
2022/01/21 09:54:16;;;;;;;6.60;2.50;;;15.50;55.10;15.60;102533.00;;;;5027840;28;20199;-48
2022/01/21 09:56:43;;;;;;;5.30;2.43;;;15.80;54.50;15.80;102520.00;;;;5028218;28;20238;-48
2022/01/21 09:59:08;;;;;;;6.40;2.27;;;16.10;54.00;16.00;102520.00;;;;5031723;28;20167;-47
2022/01/21 10:01:34;;;;;;;3.40;2.43;;;16.30;53.60;16.10;102525.00;;;;5012908;28;20560;-47
2022/01/21 10:04:00;;;;;;;9.17;2.50;;;16.40;53.50;16.30;102517.00;;;;5011910;28;20522;-49
2022/01/21 10:06:26;;;;;;;4.67;2.30;;;16.40;53.50;16.40;102517.00;;;;4995436;28;20155;-48
2022/01/21 10:08:54;;;;;;;7.37;2.57;;;16.50;53.50;16.50;102529.00;;;;5010367;28;20186;-47
2022/01/21 10:11:20;;;;;;;5.00;2.30;;;16.50;53.50;16.60;102525.00;;;;5027781;28;20275;-49
2022/01/21 10:13:48;;;;;;;7.17;3.00;;;16.50;53.60;16.60;102529.00;;;;5029321;28;20232;-48
2022/01/21 10:16:14;;;;;;;6.90;2.60;;;16.50;53.90;16.70;102538.00;;;;5028434;28;20175;-49
2022/01/21 10:19:05;;;;;;;6.77;2.63;;;16.50;54.00;16.70;102540.00;;;;5028495;28;20193;-48
2022/01/21 10:21:34;;;;;;;8.40;2.57;;;16.50;54.20;16.70;102543.00;;;;5028614;28;20167;-49
2022/01/21 10:24:12;;;;;;;5.63;2.50;;;16.50;54.40;16.80;102541.00;;;;5028940;28;20193;-48
2022/01/21 10:26:52;;;;;;;5.97;2.40;;;16.50;54.50;16.80;102550.00;;;;5011513;28;20235;-48
2022/01/21 10:29:18;;;;;;;5.37;2.47;;;16.40;54.60;16.80;102549.00;;;;5008237;28;20168;-48
2022/01/21 10:31:52;;;;;;;6.33;2.40;;;16.40;54.70;16.80;102542.00;;;;5008512;28;20152;-48
2022/01/21 10:34:41;;;;;;;5.60;2.20;;;16.40;54.80;16.80;102553.00;;;;5008132;28;20207;-48
2022/01/21 10:37:34;;;;;;;7.17;2.53;;;16.40;54.90;16.90;102567.00;;;;5007275;28;20761;-49
2022/01/21 10:40:08;;;;;;;5.23;2.40;;;16.30;55.00;16.80;102550.00;;;;5010199;28;20226;-47
2022/01/21 10:42:34;;;;;;;5.37;2.40;;;16.30;55.00;16.80;102559.00;;;;5011448;28;20190;-48
2022/01/21 10:45:00;;;;;;;5.90;2.43;;;16.20;55.10;16.80;102550.00;;;;5012039;28;20175;-48
2022/01/21 10:47:32;;;;;;;5.07;2.47;;;16.20;55.10;16.80;102561.00;;;;5012957;28;20615;-47
2022/01/21 10:50:20;;;;;;;4.23;2.33;;;16.20;55.20;16.80;102554.00;;;;5013998;28;20199;-48
2022/01/21 10:52:51;;;;;;;7.80;2.43;;;16.10;55.20;16.80;102560.00;;;;5013562;28;20219;-49
2022/01/21 10:55:38;;;;;;;4.93;2.40;;;16.10;55.30;16.80;102553.00;;;;5013914;28;20230;-49
2022/01/21 10:58:14;;;;;;;3.73;2.23;;;16.00;55.40;16.70;102545.00;;;;5012233;28;20681;-48
2022/01/21 11:01:03;;;;;;;4.40;2.40;;;16.00;55.50;16.70;102532.00;;;;5030332;28;20171;-48
2022/01/21 11:03:30;;;;;;;3.27;2.00;;;16.00;55.50;16.70;102534.00;;;;5013910;28;20237;-47
2022/01/21 11:06:19;;;;;;;3.50;2.00;;;16.00;55.60;16.70;102525.00;;;;5019833;28;20270;-48
2022/01/21 11:08:45;;;;;;;3.60;2.00;;;15.90;55.50;16.70;102530.00;;;;5033381;28;20155;-48
2022/01/21 11:11:11;;;;;;;5.60;2.20;;;15.90;56.10;16.70;102526.00;;;;5034491;28;20170;-48
2022/01/21 11:13:39;;;;;;;8.23;2.53;;;15.90;55.50;16.60;102531.00;;;;5034359;28;20229;-47
2022/01/21 11:16:12;;;;;;;4.00;2.13;;;15.80;55.70;16.60;102532.00;;;;5011637;28;20708;-47
2022/01/21 11:18:57;;;;;;;3.83;2.37;;;15.80;55.90;16.60;102521.00;;;;5011920;28;20183;-45
2022/01/21 11:21:37;;;;;;;4.87;2.20;;;15.90;55.90;16.60;102523.00;;;;5010578;28;20180;-47
2022/01/21 11:24:07;;;;;;;4.13;2.07;;;15.90;55.90;16.60;102525.00;;;;5010838;28;20175;-49
2022/01/21 11:26:33;;;;;;;3.50;2.10;;;15.90;55.80;16.60;102517.00;;;;5012020;28;20199;-49
2022/01/21 11:28:59;;;;;;;2.77;1.90;;;16.00;55.80;16.60;102516.00;;;;4994205;28;20236;-47
2022/01/21 11:31:27;;;;;;;3.60;2.07;;;15.90;55.70;16.70;102511.00;;;;4994208;28;20188;-48
2022/01/21 11:33:53;;;;;;;8.07;2.00;;;16.00;55.50;16.70;102513.00;;;;5011702;28;20557;-48
2022/01/21 11:36:18;;;;;;;2.60;1.90;;;16.10;55.60;16.70;102504.00;;;;5011168;28;20553;-47
2022/01/21 11:38:45;;;;;;;3.90;2.20;;;16.10;55.70;16.70;102500.00;;;;5011352;28;20183;-47